Overview Statistics Trail Chart Weather Telemetry Raw packets
 

This is the latest recevied weather packets stored in our database for station/object OE5MMP-13. If no packets are shown the sender has not sent any weather packets the latest 10 day(s).

<< 38 39 40 41 42 43 44 >>
Time Temp. Humidity Pressure Rain* Wind** Luminosity Snow
1788104006 26.67° C 50% 1016.4 hPa 0 mm - 268 W/m² -
1788103406 27.22° C 48% 1016.6 hPa 0 mm - 322 W/m² -
1788102806 27.22° C 49% 1016.6 hPa 0 mm - 327 W/m² -
1788102206 27.22° C 49% 1016.6 hPa 0 mm - 374 W/m² -
1788101622 27.22° C 49% 1016.7 hPa 0 mm - 415 W/m² -
1788101006 27.22° C 49% 1016.7 hPa 0 mm - 420 W/m² -
1788100406 27.22° C 49% 1016.7 hPa 0 mm - 464 W/m² -
1788099806 27.22° C 48% 1016.8 hPa 0 mm - 474 W/m² -
1788099206 27.22° C 50% 1016.9 hPa 0 mm - 510 W/m² -
1788098606 27.22° C 48% 1016.8 hPa 0 mm - 528 W/m² -
1788098006 26.67° C 49% 1016.8 hPa 0 mm - 573 W/m² -
1788097406 27.22° C 49% 1017.1 hPa 0 mm - 572 W/m² -
1788096806 26.67° C 50% 1017 hPa 0 mm - 608 W/m² -
1788096206 26.67° C 49% 1016.9 hPa 0 mm - 621 W/m² -
1788095606 26.67° C 47% 1017.1 hPa 0 mm - 630 W/m² -
1788095006 26.11° C 49% 1017 hPa 0 mm - 570 W/m² -
1788094406 26.11° C 49% 1017.2 hPa 0 mm - 693 W/m² -
1788093806 26.11° C 49% 1017.4 hPa 0 mm - 677 W/m² -
1788093206 25.56° C 51% 1017.5 hPa 0 mm - 700 W/m² -
1788092606 26.11° C 53% 1017.6 hPa 0 mm - 689 W/m² -
1788092005 25.56° C 51% 1017.6 hPa 0 mm - 633 W/m² -
1788091406 26.11° C 52% 1017.9 hPa 0 mm - 714 W/m² -
1788090807 25.56° C 52% 1017.9 hPa 0 mm - 722 W/m² -
1788090205 25° C 54% 1018 hPa 0 mm - 731 W/m² -
1788089606 25° C 54% 1018.1 hPa 0 mm - 749 W/m² -

* Rain latest hour (hover to see other rain measurements)
** Current wind speed in m/s (hover to see current wind gust speed)